Nearby METAR Reports

 

KMTN - Baltimore/Martin, Maryland, USA
Distance from station: SSE 8mi, 13km
Updated: Thu, 27-Nov-2014 10:33pm EST
Mostly cloudy
Mostly cloudy
 Wind from WSW
Wind: WSW 3 mph , 6 km/h
Temperature: 36°F , 2°C
Dew Point: 32°F , 0°C
Humidity: 87%
Barometer: 30.17 inHg , 1021.7 hPa
Clouds: Mostly cloudy
Visibility: 10 miles , 16 km
Cloud details: Mostly cloudy 6000 ft
2014/11/28 03:33 KMTN 280333Z AUTO 25003KT 10SM BKN060 02/00 A3017 RMK AO2
KDMH - Baltimore/Dwntwn, Maryland, USA
Distance from station: SW 12mi, 19km
Updated: Thu, 27-Nov-2014 9:54pm EST

 
Temperature: 37°F , 3°C
Dew Point: 28°F , -2°C
Humidity: 70%
Barometer: 30.15 inHg , 1021 hPa
2014/11/28 02:54 KDMH 280254Z AUTO 03/M02 A3015 RMK AO1 SLP209 T00281017 52012
 
KBWI - Balto/Wash Intl, Maryland, USA
Distance from station: SSW 20mi, 33km
Updated: Thu, 27-Nov-2014 9:54pm EST
Mostly cloudy
Mostly cloudy
 Wind from W
Wind: W 7 mph , 11 km/h
Temperature: 36°F , 2°C
Wind Chill: 30°F , -1°C
Dew Point: 28°F , -2°C
Humidity: 75%
Barometer: 30.15 inHg , 1021 hPa
Clouds: Mostly cloudy
Visibility: 10 miles , 16 km
Cloud details: Mostly cloudy 7000 ft
2014/11/28 02:54 KBWI 280254Z 26006KT 10SM BKN070 02/M02 A3015 RMK AO2 SLP209 T00221017 51012
KDMW - Carroll Cnty, Maryland, USA
Distance from station: WNW 30mi, 48km
Updated: Thu, 27-Nov-2014 10:30pm EST
Overcast
Overcast
 Wind from W
Wind: W 9 mph , 15 km/h
Temperature: 34°F , 1°C
Wind Chill: 27°F , -3°C
Dew Point: 30°F , -1°C
Humidity: 87%
Barometer: 30.12 inHg , 1020 hPa
Clouds: Overcast
Visibility: 10 miles , 16 km
Cloud details: Partly cloudy 4200 ft
Mostly cloudy 5000 ft
Overcast 8500 ft
2014/11/28 03:30 KDMW 280330Z AUTO 28008KT 10SM SCT042 BKN050 OVC085 01/M01 A3012 RMK AO2
 
KNAK - Annapolis/Naval, Maryland, USA
Distance from station: S 30mi, 48km
Updated: Thu, 27-Nov-2014 9:54pm EST
Overcast
Overcast
 Wind from W
Wind: W 5 mph , 7 km/h
Temperature: 36°F , 2°C
Wind Chill: 32°F , 0°C
Dew Point: 28°F , -2°C
Humidity: 75%
Barometer: 30.16 inHg , 1021.3 hPa
Clouds: Overcast
Visibility: 9 miles , 14 km
Cloud details: Overcast 8500 ft
2014/11/28 02:54 KNAK 280254Z AUTO 27004KT 9SM OVC085 02/M02 A3016 RMK AO2 SLP214 T00221017 53013 $
KW29 - Stevensville, Maryland, USA
Distance from station: SSE 31mi, 50km
Updated: Thu, 27-Nov-2014 10:33pm EST

 Wind from WNW
Wind: WNW 10 mph , 17 km/h
Temperature: 37°F , 3°C
Wind Chill: 30°F , -1°C
Dew Point: 30°F , -1°C
Humidity: 75%
Barometer: 30.16 inHg , 1021.3 hPa
Visibility: 10 miles , 16 km
2014/11/28 03:33 KW29 280333Z AUTO 29009KT 10SM 03/M01 A3016 RMK AO1
 
KCGS - College Park, Maryland, USA
Distance from station: SW 38mi, 61km
Updated: Thu, 27-Nov-2014 10:30pm EST
Overcast
Overcast
 Wind from calm
Wind: Calm
Temperature: 37°F , 3°C
Dew Point: 32°F , 0°C
Humidity: 81%
Barometer: 30.17 inHg , 1021.7 hPa
Clouds: Overcast
Visibility: 10 miles , 16 km
Cloud details: Partly cloudy 4400 ft
Overcast 5000 ft
2014/11/28 03:30 KCGS 280330Z AUTO 00000KT 10SM SCT044 OVC050 03/00 A3017 RMK AO1
KGAI - Gaithersburg, Maryland, USA
Distance from station: WSW 40mi, 65km
Updated: Thu, 27-Nov-2014 10:35pm EST
Mostly cloudy
Mostly cloudy
 Wind from calm
Wind: Calm
Temperature: 34°F , 1°C
Dew Point: 28°F , -2°C
Humidity: 81%
Barometer: 30.18 inHg , 1022 hPa
Clouds: Mostly cloudy
Visibility: 10 miles , 16 km
Cloud details: Few Clouds 4900 ft
Mostly cloudy 8500 ft
2014/11/28 03:35 KGAI 280335Z 00000KT 10SM FEW049 BKN085 01/M02 A3018 RMK AO1
 
KTHV - York, Pennsylvania, USA
Distance from station: NNW 40mi, 65km
Updated: Thu, 27-Nov-2014 9:53pm EST
Overcast
Overcast
 Wind from W
Wind: W 6 mph , 9 km/h
Temperature: 34°F , 1°C
Wind Chill: 29°F , -2°C
Dew Point: 28°F , -2°C
Humidity: 81%
Barometer: 30.12 inHg , 1020 hPa
Clouds: Overcast
Visibility: 10 miles , 16 km
Cloud details: Mostly cloudy 5500 ft
Overcast 9000 ft
2014/11/28 02:53 KTHV 280253Z AUTO 28005KT 10SM BKN055 OVC090 01/M02 A3012 RMK AO2 SLP206 I3000 T00061017 53005
KFDK - Frederick, Maryland, USA
Distance from station: W 47mi, 75km
Updated: Thu, 27-Nov-2014 10:30pm EST
Mostly cloudy
Mostly cloudy
 Wind from WNW
Wind: WNW 8 mph , 13 km/h
Temperature: 36°F , 2°C
Wind Chill: 30°F , -1°C
Dew Point: 28°F , -2°C
Humidity: 75%
Barometer: 30.19 inHg , 1022.4 hPa
Clouds: Mostly cloudy
Visibility: 10 miles , 16 km
Cloud details: Partly cloudy 3500 ft
Mostly cloudy 8500 ft
2014/11/28 03:30 KFDK 280330Z AUTO 30007KT 10SM SCT035 BKN085 02/M02 A3019 RMK AO2
 
KESN - Easton/Newnam, Maryland, USA
Distance from station: SSE 48mi, 78km
Updated: Thu, 27-Nov-2014 10:47pm EST
Partly cloudy
Partly cloudy
 Wind from NW
Wind: NW 3 mph , 6 km/h
Temperature: 36°F , 2°C
Dew Point: 32°F , 0°C
Humidity: 87%
Barometer: 30.18 inHg , 1022 hPa
Clouds: Partly cloudy
Visibility: 10 miles , 16 km
Cloud details: Partly cloudy 8000 ft
2014/11/28 03:47 KESN 280347Z AUTO 31003KT 10SM SCT080 02/00 A3018 RMK AO2 T00220000
KDCA - Washington/Natl, Washington D.c., USA
Distance from station: SW 49mi, 79km
Updated: Thu, 27-Nov-2014 9:52pm EST
Mostly cloudy
Mostly cloudy
 Wind from WNW
Wind: WNW 7 mph , 11 km/h
Temperature: 41°F , 5°C
Wind Chill: 36°F , 2°C
Dew Point: 27°F , -3°C
Humidity: 57%
Barometer: 30.18 inHg , 1022 hPa
Clouds: Mostly cloudy
Visibility: 10 miles , 16 km
Cloud details: Mostly cloudy 6500 ft
Mostly cloudy 9000 ft
2014/11/28 02:52 KDCA 280252Z 29006KT 10SM BKN065 BKN090 05/M03 A3018 RMK AO2 SLP218 T00501028 52010
 
KLNS - Lancaster, Pennsylvania, USA
Distance from station: N 49mi, 79km
Updated: Thu, 27-Nov-2014 9:53pm EST
Overcast
Overcast
 Wind from WNW
Wind: WNW 5 mph , 7 km/h
Temperature: 28°F , -2°C
Wind Chill: 22°F , -6°C
Dew Point: 27°F , -3°C
Humidity: 93%
Barometer: 30.11 inHg , 1019.6 hPa
Clouds: Overcast
Visibility: 7 miles , 11 km
Cloud details: Overcast 8000 ft
2014/11/28 02:53 KLNS 280253Z 29004KT 7SM OVC080 M02/M03 A3011 RMK AO2 SLP200 T10171028 53007
KILG - Wilmington, Delaware, USA
Distance from station: ENE 50mi, 81km
Updated: Thu, 27-Nov-2014 9:51pm EST
Clear
Clear
 Wind from W
Wind: W 9 mph , 15 km/h
Temperature: 34°F , 1°C
Wind Chill: 27°F , -3°C
Dew Point: 28°F , -2°C
Humidity: 81%
Barometer: 30.13 inHg , 1020.3 hPa
Clouds: Clear
Visibility: 10 miles , 16 km
2014/11/28 02:51 KILG 280251Z 28008KT 10SM CLR 01/M02 A3013 RMK AO2 SLP205 T00061022 51010